createdAt,value
2023-04-01T00:00:41.091Z,78.71
2023-04-01T00:01:41.068Z,78.30
2023-04-01T00:02:41.106Z,78.40
2023-04-01T00:03:41.147Z,78.60
2023-04-01T00:04:41.144Z,78.40
2023-04-01T00:05:41.007Z,78.19
2023-04-01T00:06:40.995Z,78.19
2023-04-01T00:07:40.978Z,78.19
2023-04-01T00:08:40.964Z,78.40
2023-04-01T00:09:40.956Z,78.71
2023-04-01T00:10:40.949Z,78.91
2023-04-01T00:11:40.924Z,79.01
2023-04-01T00:12:40.914Z,78.80
2023-04-01T00:13:40.895Z,79.01
2023-04-01T00:14:40.887Z,79.01
2023-04-01T00:15:40.869Z,79.15
2023-04-01T00:16:40.918Z,78.94
2023-04-01T00:18:40.831Z,78.84
2023-04-01T00:19:40.816Z,78.91
2023-04-01T00:20:40.802Z,78.94
2023-04-01T00:21:40.790Z,78.94
2023-04-01T00:22:40.776Z,78.91
2023-04-01T00:23:40.763Z,79.05
2023-04-01T00:24:40.748Z,78.84
2023-04-01T00:25:40.741Z,78.64
2023-04-01T00:26:40.720Z,78.50
2023-04-01T00:27:40.707Z,78.54
2023-04-01T00:28:40.694Z,78.64
2023-04-01T00:29:40.688Z,78.74
2023-04-01T00:30:40.711Z,78.94
2023-04-01T00:31:40.705Z,79.05
2023-04-01T00:32:40.700Z,78.84
2023-04-01T00:33:40.629Z,79.05
2023-04-01T00:34:40.622Z,78.74
2023-04-01T00:35:40.633Z,78.94
2023-04-01T00:36:40.637Z,78.74
2023-04-01T00:37:40.587Z,78.54
2023-04-01T00:38:40.571Z,78.54
2023-04-01T00:39:40.553Z,78.64
2023-04-01T00:40:40.537Z,78.94
2023-04-01T00:41:40.536Z,79.05
2023-04-01T00:42:40.515Z,79.25
2023-04-01T00:43:40.504Z,79.15
2023-04-01T00:44:40.489Z,78.94
2023-04-01T00:45:40.478Z,79.15
2023-04-01T00:46:40.482Z,79.05
2023-04-01T00:47:40.537Z,79.05
2023-04-01T00:48:40.466Z,78.84
2023-04-01T00:49:40.426Z,78.84
2023-04-01T00:50:40.406Z,78.94
2023-04-01T00:51:40.398Z,79.15
2023-04-01T00:52:40.385Z,79.05
2023-04-01T00:53:40.376Z,79.46
2023-04-01T00:54:40.353Z,78.94
2023-04-01T00:55:40.368Z,79.25
2023-04-01T00:56:40.335Z,79.35
2023-04-01T00:57:40.326Z,79.56
2023-04-01T00:58:40.326Z,79.05
2023-04-01T00:59:40.295Z,79.05
2023-04-01T01:00:40.345Z,78.94
2023-04-01T01:01:40.293Z,78.84
2023-04-01T01:02:40.454Z,79.25
2023-04-01T01:03:40.249Z,79.15
2023-04-01T01:04:40.247Z,79.25
2023-04-01T01:05:48.786Z,79.35
2023-04-01T01:06:42.236Z,79.66
2023-04-01T01:07:40.199Z,79.80
2023-04-01T01:08:40.170Z,79.69
2023-04-01T01:09:40.158Z,79.69
2023-04-01T01:10:40.164Z,79.35
2023-04-01T01:11:43.725Z,79.66
2023-04-01T01:12:40.119Z,79.49
2023-04-01T01:13:40.108Z,79.69
2023-04-01T01:14:40.093Z,79.60
2023-04-01T01:15:40.083Z,79.29
2023-04-01T01:16:40.094Z,78.64
2023-04-01T01:17:40.091Z,78.84
2023-04-01T01:18:40.043Z,79.15
2023-04-01T01:19:40.026Z,79.69
2023-04-01T01:20:40.032Z,79.69
2023-04-01T01:21:39.996Z,79.49
2023-04-01T01:22:39.983Z,79.60
2023-04-01T01:23:39.972Z,79.69
2023-04-01T01:24:39.953Z,79.39
2023-04-01T01:25:39.944Z,79.29
2023-04-01T01:26:39.940Z,79.29
2023-04-01T01:27:39.917Z,78.98
2023-04-01T01:28:39.900Z,78.94
2023-04-01T01:29:39.886Z,78.84
2023-04-01T01:30:39.907Z,78.84
2023-04-01T01:31:39.860Z,79.15
2023-04-01T01:32:39.848Z,78.98
2023-04-01T01:33:39.835Z,79.15
2023-04-01T01:34:39.819Z,79.35
2023-04-01T01:35:39.826Z,79.19
2023-04-01T01:36:39.815Z,78.88
2023-04-01T01:37:39.778Z,78.88
2023-04-01T01:38:39.768Z,79.08
2023-04-01T01:39:39.762Z,78.88
2023-04-01T01:40:39.738Z,78.84
2023-04-01T01:41:39.754Z,78.64
2023-04-01T01:42:39.715Z,78.57
2023-04-01T01:43:39.705Z,78.57
2023-04-01T01:44:39.684Z,78.74
2023-04-01T01:45:39.675Z,78.84
2023-04-01T01:46:39.692Z,79.08
2023-04-01T01:47:39.692Z,79.19
2023-04-01T01:48:39.629Z,79.39
2023-04-01T01:49:39.618Z,78.94
2023-04-01T01:50:39.606Z,78.78
2023-04-01T01:51:39.594Z,78.98
2023-04-01T01:52:39.600Z,79.08
2023-04-01T01:53:39.563Z,79.19
2023-04-01T01:54:39.548Z,78.98
2023-04-01T01:55:39.552Z,78.78
2023-04-01T01:56:39.544Z,78.64
2023-04-01T01:57:39.541Z,78.78
2023-04-01T01:58:39.496Z,79.15
2023-04-01T01:59:39.509Z,79.19
2023-04-01T02:00:39.489Z,79.39
2023-04-01T02:01:39.540Z,79.60
2023-04-01T02:02:39.481Z,79.29
2023-04-01T02:03:39.429Z,79.19
2023-04-01T02:04:39.466Z,79.08
2023-04-01T02:05:39.413Z,78.57
2023-04-01T02:06:39.396Z,78.47
2023-04-01T02:07:39.382Z,78.57
2023-04-01T02:08:39.396Z,78.37
2023-04-01T02:09:39.355Z,78.33
2023-04-01T02:10:39.351Z,78.33
2023-04-01T02:11:39.321Z,78.13
2023-04-01T02:12:39.309Z,78.27
2023-04-01T02:13:39.298Z,78.27
2023-04-01T02:14:39.290Z,78.07
2023-04-01T02:15:39.295Z,77.92
2023-04-01T02:16:39.261Z,77.82
2023-04-01T02:17:39.338Z,77.66
2023-04-01T02:18:39.229Z,77.92
2023-04-01T02:19:39.219Z,78.27
2023-04-01T02:20:39.200Z,77.86
2023-04-01T02:21:39.196Z,78.03
2023-04-01T02:22:39.184Z,77.86
2023-04-01T02:23:39.164Z,77.82
2023-04-01T02:24:39.175Z,77.75
2023-04-01T02:25:39.133Z,77.82
2023-04-01T02:26:39.119Z,77.92
2023-04-01T02:27:39.108Z,77.52
2023-04-01T02:28:39.096Z,77.92
2023-04-01T02:29:39.092Z,77.86
2023-04-01T02:30:39.067Z,77.86
2023-04-01T02:31:39.108Z,77.55
2023-04-01T02:32:39.126Z,77.82
2023-04-01T02:33:39.027Z,77.75
2023-04-01T02:34:39.018Z,77.86
2023-04-01T02:35:39.007Z,77.96
2023-04-01T02:36:38.985Z,77.62
2023-04-01T02:37:40.382Z,77.52
2023-04-01T02:38:38.962Z,77.31
2023-04-01T02:39:38.952Z,77.55
2023-04-01T02:40:38.956Z,77.75
2023-04-01T02:41:38.920Z,77.72
2023-04-01T02:42:38.909Z,77.96
2023-04-01T02:43:38.900Z,77.75
2023-04-01T02:44:38.882Z,77.55
2023-04-01T02:45:38.871Z,77.86
2023-04-01T02:46:38.921Z,78.07
2023-04-01T02:47:38.885Z,77.34
2023-04-01T02:48:38.851Z,77.45
2023-04-01T02:49:38.816Z,77.45
2023-04-01T02:50:38.808Z,77.62
2023-04-01T02:51:38.794Z,77.66
2023-04-01T02:52:38.778Z,77.45
2023-04-01T02:53:38.766Z,77.25
2023-04-01T02:54:38.757Z,77.14
2023-04-01T02:55:38.736Z,77.25
2023-04-01T02:56:38.748Z,77.41
2023-04-01T02:57:38.723Z,77.45
2023-04-01T02:58:38.703Z,77.55
2023-04-01T02:59:38.686Z,77.55
2023-04-01T03:00:38.675Z,77.66
2023-04-01T03:01:38.719Z,77.75
2023-04-01T03:02:38.754Z,77.86
2023-04-01T03:03:38.682Z,77.96
2023-04-01T03:04:38.622Z,78.27
2023-04-01T03:05:38.611Z,77.96
2023-04-01T03:06:38.602Z,78.07
2023-04-01T03:07:38.586Z,77.86
2023-04-01T03:08:38.577Z,77.55
2023-04-01T03:09:38.558Z,77.14
2023-04-01T03:10:38.546Z,77.45
2023-04-01T03:11:38.531Z,77.45
2023-04-01T03:12:38.546Z,77.55
2023-04-01T03:13:38.508Z,77.55
2023-04-01T03:14:38.500Z,77.86
2023-04-01T03:15:38.503Z,77.86
2023-04-01T03:16:38.507Z,77.86
2023-04-01T03:17:38.486Z,77.96
2023-04-01T03:18:38.442Z,78.07
2023-04-01T03:19:38.424Z,78.07
2023-04-01T03:20:38.417Z,77.96
2023-04-01T03:21:38.403Z,77.86
2023-04-01T03:22:39.626Z,77.86
2023-04-01T03:23:38.369Z,77.86
2023-04-01T03:24:38.358Z,78.16
2023-04-01T03:25:38.353Z,78.88
2023-04-01T03:26:38.332Z,78.57
2023-04-01T03:27:38.327Z,78.37
2023-04-01T03:28:38.329Z,78.47
2023-04-01T03:29:38.327Z,78.78
2023-04-01T03:30:38.316Z,78.68
2023-04-01T03:31:38.275Z,78.57
2023-04-01T03:32:38.337Z,78.27
2023-04-01T03:33:38.238Z,77.66
2023-04-01T03:34:38.222Z,77.96
2023-04-01T03:35:38.213Z,77.75
2023-04-01T03:36:38.271Z,77.86
2023-04-01T03:37:38.184Z,78.16
2023-04-01T03:38:38.172Z,78.16
2023-04-01T03:39:38.154Z,78.07
2023-04-01T03:40:38.150Z,78.27
2023-04-01T03:41:38.128Z,77.75
2023-04-01T03:42:38.145Z,77.86
2023-04-01T03:43:38.108Z,77.75
2023-04-01T03:44:38.113Z,77.86
2023-04-01T03:45:38.074Z,77.96
2023-04-01T03:46:38.287Z,77.96
2023-04-01T03:47:38.097Z,77.96
2023-04-01T03:48:38.037Z,78.27
2023-04-01T03:49:38.028Z,77.96
2023-04-01T03:50:38.013Z,77.86
2023-04-01T03:51:37.994Z,78.07
2023-04-01T03:52:37.982Z,77.75
2023-04-01T03:53:37.973Z,77.86
2023-04-01T03:54:37.959Z,77.55
2023-04-01T03:55:37.954Z,77.75
2023-04-01T03:56:37.930Z,77.86
2023-04-01T03:57:37.919Z,77.86
2023-04-01T03:58:37.931Z,78.07
2023-04-01T03:59:37.889Z,79.02
2023-04-01T04:00:37.901Z,80.04
2023-04-01T04:01:37.869Z,80.76
2023-04-01T04:02:37.984Z,80.79
2023-04-01T04:03:37.942Z,80.59
2023-04-01T04:04:37.870Z,81.51
2023-04-01T04:05:37.810Z,82.33
2023-04-01T04:06:37.799Z,83.15
2023-04-01T04:07:37.793Z,83.35
2023-04-01T04:08:37.775Z,83.70
2023-04-01T04:09:37.757Z,83.59
2023-04-01T04:10:37.747Z,84.72
2023-04-01T04:11:37.735Z,84.31
2023-04-01T04:12:37.731Z,85.47
2023-04-01T04:13:37.711Z,85.38
2023-04-01T04:14:37.722Z,85.88
2023-04-01T04:15:37.703Z,86.30
2023-04-01T04:16:37.702Z,86.60
2023-04-01T04:17:37.672Z,86.19
2023-04-01T04:19:37.638Z,86.91
2023-04-01T04:20:37.624Z,86.30
2023-04-01T04:21:37.615Z,86.44
2023-04-01T04:22:37.604Z,85.68
2023-04-01T04:23:37.586Z,85.99
2023-04-01T04:24:37.596Z,87.12
2023-04-01T04:25:37.557Z,86.30
2023-04-01T04:26:37.550Z,86.30
2023-04-01T04:27:37.544Z,86.91
2023-04-01T04:28:37.525Z,86.85
2023-04-01T04:29:37.502Z,87.06
2023-04-01T04:30:37.497Z,86.19
2023-04-01T04:31:37.528Z,86.50
2023-04-01T04:32:37.525Z,87.15
2023-04-01T04:33:37.460Z,88.07
2023-04-01T04:34:37.438Z,87.87
2023-04-01T04:35:37.442Z,87.77
2023-04-01T04:36:37.417Z,87.87
2023-04-01T04:37:37.404Z,87.06
2023-04-01T04:38:37.391Z,86.95
2023-04-01T04:39:37.373Z,87.87
2023-04-01T04:40:37.365Z,87.77
2023-04-01T04:41:37.747Z,87.36
2023-04-01T04:42:37.339Z,87.98
2023-04-01T04:43:37.322Z,87.77
2023-04-01T04:44:37.312Z,87.77
2023-04-01T04:45:37.297Z,87.87
2023-04-01T04:46:37.343Z,87.87
2023-04-01T04:47:37.289Z,87.67
2023-04-01T04:48:37.296Z,88.18
2023-04-01T04:49:37.253Z,87.46
2023-04-01T04:50:37.233Z,87.06
2023-04-01T04:51:37.251Z,87.36
2023-04-01T04:52:37.209Z,88.39
2023-04-01T04:53:37.194Z,88.28
2023-04-01T04:54:37.190Z,88.07
2023-04-01T04:55:37.172Z,88.28
2023-04-01T04:56:37.156Z,88.59
2023-04-01T04:57:37.152Z,88.69
2023-04-01T04:58:37.137Z,87.77
2023-04-01T04:59:37.115Z,87.26
2023-04-01T05:00:37.108Z,86.34
2023-04-01T05:01:37.169Z,86.40
2023-04-01T05:02:37.175Z,86.60
2023-04-01T05:03:37.092Z,86.44
2023-04-01T05:04:37.077Z,86.09
2023-04-01T05:05:37.064Z,86.30
2023-04-01T05:06:37.030Z,85.88
2023-04-01T05:07:37.013Z,85.99
2023-04-01T05:08:37.000Z,86.40
2023-04-01T05:09:36.992Z,86.09
2023-04-01T05:10:36.988Z,86.60
2023-04-01T05:11:36.959Z,85.47
2023-04-01T05:12:36.949Z,85.07
2023-04-01T05:13:36.932Z,85.68
2023-04-01T05:14:36.932Z,85.88
2023-04-01T05:15:36.908Z,86.40
2023-04-01T05:16:36.947Z,86.34
2023-04-01T05:17:36.921Z,86.40
2023-04-01T05:18:36.868Z,86.60
2023-04-01T05:19:36.855Z,87.01
2023-04-01T05:20:36.880Z,86.09
2023-04-01T05:21:36.833Z,85.88
2023-04-01T05:22:36.825Z,86.30
2023-04-01T05:23:36.804Z,86.71
2023-04-01T05:24:36.790Z,86.54
2023-04-01T05:25:36.777Z,86.44
2023-04-01T05:26:36.764Z,86.09
2023-04-01T05:27:36.752Z,86.40
2023-04-01T05:28:36.741Z,86.19
2023-04-01T05:29:36.734Z,86.50
2023-04-01T05:30:36.736Z,86.50
2023-04-01T05:31:36.703Z,86.60
2023-04-01T05:32:36.725Z,86.40
2023-04-01T05:33:36.678Z,86.19
2023-04-01T05:34:36.660Z,86.09
2023-04-01T05:35:36.893Z,86.30
2023-04-01T05:36:36.662Z,86.30
2023-04-01T05:37:36.621Z,86.09
2023-04-01T05:38:36.612Z,85.17
2023-04-01T05:39:36.598Z,85.47
2023-04-01T05:40:36.587Z,85.68
2023-04-01T05:41:36.575Z,85.17
2023-04-01T05:42:38.139Z,85.58
2023-04-01T05:43:36.545Z,85.47
2023-04-01T05:44:36.546Z,85.17
2023-04-01T05:45:36.521Z,85.68
2023-04-01T05:46:36.683Z,85.88
2023-04-01T05:47:36.567Z,86.09
2023-04-01T05:48:36.483Z,85.68
2023-04-01T05:49:36.474Z,85.47
2023-04-01T05:50:36.460Z,85.58
2023-04-01T05:51:36.443Z,85.58
2023-04-01T05:52:36.456Z,86.09
2023-04-01T05:53:36.415Z,86.19
2023-04-01T05:54:36.408Z,86.09
2023-04-01T05:55:36.399Z,86.19
2023-04-01T05:56:36.383Z,87.01
2023-04-01T05:57:36.520Z,87.12
2023-04-01T05:58:36.363Z,86.91
2023-04-01T05:59:36.341Z,86.50
2023-04-01T06:00:36.332Z,86.60
2023-04-01T06:01:36.318Z,86.30
2023-04-01T06:02:36.454Z,87.12
2023-04-01T06:03:36.633Z,86.81
2023-04-01T06:04:36.317Z,87.12
2023-04-01T06:05:36.263Z,87.21
2023-04-01T06:06:36.261Z,87.93
2023-04-01T06:07:36.233Z,87.87
2023-04-01T06:08:36.252Z,88.28
2023-04-01T06:09:36.214Z,88.49
2023-04-01T06:10:36.202Z,88.80
2023-04-01T06:11:36.189Z,88.80
2023-04-01T06:12:36.174Z,88.80
2023-04-01T06:13:36.161Z,88.90
2023-04-01T06:14:36.175Z,88.59
2023-04-01T06:15:36.140Z,88.69
2023-04-01T06:16:36.146Z,88.69
2023-04-01T06:17:36.138Z,88.18
2023-04-01T06:18:36.103Z,88.59
2023-04-01T06:19:36.093Z,89.20
2023-04-01T06:20:36.071Z,88.80
2023-04-01T06:21:36.111Z,88.24
2023-04-01T06:22:36.053Z,88.34
2023-04-01T06:23:36.033Z,88.86
2023-04-01T06:24:36.082Z,89.16
2023-04-01T06:25:36.245Z,88.65
2023-04-01T06:26:35.994Z,88.24
2023-04-01T06:27:35.986Z,88.86
2023-04-01T06:28:36.005Z,88.45
2023-04-01T06:29:35.984Z,89.16
2023-04-01T06:30:35.951Z,89.37
2023-04-01T06:31:35.963Z,89.88
2023-04-01T06:32:35.967Z,89.67
2023-04-01T06:33:35.912Z,90.08
2023-04-01T06:34:35.913Z,89.67
2023-04-01T06:35:36.243Z,89.27
2023-04-01T06:36:35.942Z,89.16
2023-04-01T06:37:35.876Z,89.27
2023-04-01T06:38:35.846Z,89.47
2023-04-01T06:39:35.838Z,90.19
2023-04-01T06:40:35.854Z,89.57
2023-04-01T06:41:35.814Z,88.96
2023-04-01T06:42:35.804Z,89.37
2023-04-01T06:43:35.785Z,89.06
2023-04-01T06:44:35.780Z,88.81
2023-04-01T06:45:36.123Z,89.02
2023-04-01T06:46:35.753Z,89.12
2023-04-01T06:47:35.763Z,89.12
2023-04-01T06:48:35.724Z,89.63
2023-04-01T06:49:35.710Z,90.00
2023-04-01T06:50:35.699Z,89.94
2023-04-01T06:51:35.685Z,89.33
2023-04-01T06:52:35.788Z,89.80
2023-04-01T06:53:35.661Z,89.12
2023-04-01T06:54:35.650Z,89.80
2023-04-01T06:55:35.632Z,89.43
2023-04-01T06:56:35.644Z,89.84
2023-04-01T06:57:35.613Z,90.31
2023-04-01T06:58:35.590Z,89.53
2023-04-01T06:59:35.579Z,89.73
2023-04-01T07:00:35.586Z,89.12
2023-04-01T07:01:35.704Z,89.28
2023-04-01T07:02:35.616Z,89.18
2023-04-01T07:03:35.524Z,89.39
2023-04-01T07:04:35.543Z,89.59
2023-04-01T07:05:35.505Z,89.80
2023-04-01T07:06:35.487Z,89.80
2023-04-01T07:07:35.471Z,90.00
2023-04-01T07:08:35.455Z,90.10
2023-04-01T07:09:35.441Z,90.20
2023-04-01T07:10:35.436Z,89.59
2023-04-01T07:11:35.549Z,90.00
2023-04-01T07:12:35.428Z,89.08
2023-04-01T07:13:35.396Z,89.49
2023-04-01T07:14:35.375Z,89.49
2023-04-01T07:15:35.471Z,89.69
2023-04-01T07:16:35.367Z,89.18
2023-04-01T07:17:35.352Z,89.69
2023-04-01T07:18:35.320Z,89.28
2023-04-01T07:19:35.308Z,90.10
2023-04-01T07:20:35.300Z,89.28
2023-04-01T07:21:35.279Z,90.10
2023-04-01T07:22:35.272Z,89.80
2023-04-01T07:23:35.252Z,89.59
2023-04-01T07:24:35.262Z,90.00
2023-04-01T07:25:35.645Z,90.06
2023-04-01T07:26:35.213Z,90.27
2023-04-01T07:27:35.203Z,89.65
2023-04-01T07:28:35.398Z,89.45
2023-04-01T07:29:35.179Z,89.45
2023-04-01T07:30:35.161Z,89.51
2023-04-01T07:31:35.227Z,88.38
2023-04-01T07:32:36.392Z,88.38
2023-04-01T07:33:35.123Z,88.54
2023-04-01T07:34:35.110Z,88.24
2023-04-01T07:35:35.348Z,88.44
2023-04-01T07:36:35.084Z,87.53
2023-04-01T07:37:35.074Z,87.01
2023-04-01T07:38:35.078Z,87.63
2023-04-01T07:39:35.048Z,87.93
2023-04-01T07:40:35.041Z,87.53
2023-04-01T07:41:35.037Z,86.91
2023-04-01T07:42:35.012Z,87.42
2023-04-01T07:43:34.998Z,87.22
2023-04-01T07:44:35.015Z,86.81
2023-04-01T07:45:35.324Z,87.53
2023-04-01T07:46:34.987Z,87.22
2023-04-01T07:47:34.989Z,87.42
2023-04-01T07:48:34.932Z,88.34
2023-04-01T07:49:34.918Z,87.73
2023-04-01T07:50:34.910Z,87.22
2023-04-01T07:51:34.894Z,87.32
2023-04-01T07:52:34.881Z,87.42
2023-04-01T07:53:34.874Z,87.32
2023-04-01T07:54:34.859Z,87.53
2023-04-01T07:55:35.176Z,87.73
2023-04-01T07:56:34.829Z,87.83
2023-04-01T07:57:34.823Z,87.73
2023-04-01T07:58:34.811Z,87.93
2023-04-01T07:59:34.794Z,87.53
2023-04-01T08:00:34.814Z,87.83
2023-04-01T08:01:34.765Z,87.01
2023-04-01T08:02:34.802Z,87.22
2023-04-01T08:03:34.949Z,87.12
2023-04-01T08:04:34.784Z,87.63
2023-04-01T08:05:35.074Z,86.81
2023-04-01T08:06:34.698Z,87.12
2023-04-01T08:07:34.688Z,88.14
2023-04-01T08:08:34.675Z,87.63
2023-04-01T08:09:34.663Z,86.91
2023-04-01T08:10:34.646Z,88.04
2023-04-01T08:11:34.637Z,87.53
2023-04-01T08:12:34.621Z,87.42
2023-04-01T08:13:34.609Z,87.73
2023-04-01T08:14:34.600Z,88.30
2023-04-01T08:15:34.852Z,87.22
2023-04-01T08:16:34.647Z,88.14
2023-04-01T08:17:34.606Z,88.24
2023-04-01T08:18:34.552Z,88.24
2023-04-01T08:19:34.534Z,88.54
2023-04-01T08:20:34.510Z,88.85
2023-04-01T08:21:34.510Z,88.24
2023-04-01T08:22:34.534Z,88.18
2023-04-01T08:23:34.477Z,88.65
2023-04-01T08:24:46.450Z,88.95
2023-04-01T08:25:36.449Z,88.65
2023-04-01T08:26:34.432Z,88.14
2023-04-01T08:27:34.428Z,87.73
2023-04-01T08:28:34.408Z,87.69
2023-04-01T08:29:34.398Z,87.79
2023-04-01T08:30:34.385Z,86.87
2023-04-01T08:31:34.433Z,86.73
2023-04-01T08:32:34.400Z,86.63
2023-04-01T08:33:34.346Z,86.69
2023-04-01T08:34:34.333Z,85.67
2023-04-01T08:35:36.180Z,85.22
2023-04-01T08:36:34.348Z,85.77
2023-04-01T08:37:34.296Z,86.28
2023-04-01T08:38:34.280Z,85.10
2023-04-01T08:39:34.269Z,85.71
2023-04-01T08:40:34.259Z,86.93
2023-04-01T08:41:34.242Z,87.04
2023-04-01T08:42:34.226Z,87.60
2023-04-01T08:43:34.214Z,87.50
2023-04-01T08:44:34.204Z,87.10
2023-04-01T08:45:34.329Z,86.93
2023-04-01T08:46:34.176Z,87.24
2023-04-01T08:47:34.183Z,86.42
2023-04-01T08:48:34.178Z,87.04
2023-04-01T08:49:34.137Z,86.01
2023-04-01T08:50:34.125Z,86.63
2023-04-01T08:51:34.121Z,87.44
2023-04-01T08:52:34.099Z,87.30
2023-04-01T08:53:34.090Z,86.32
2023-04-01T08:54:34.075Z,86.32
2023-04-01T08:55:34.355Z,86.32
2023-04-01T08:56:34.050Z,86.83
2023-04-01T08:57:34.083Z,85.61
2023-04-01T08:58:34.027Z,85.81
2023-04-01T08:59:34.008Z,86.48
2023-04-01T09:00:34.008Z,86.59
2023-04-01T09:01:33.986Z,86.34
2023-04-01T09:02:34.062Z,86.61
2023-04-01T09:03:34.049Z,84.47
2023-04-01T09:04:34.078Z,83.95
2023-04-01T09:05:34.170Z,83.72
2023-04-01T09:06:33.924Z,83.20
2023-04-01T09:07:33.909Z,83.47
2023-04-01T09:08:33.894Z,82.56
2023-04-01T09:09:33.883Z,83.17
2023-04-01T09:10:33.870Z,82.86
2023-04-01T09:11:33.868Z,82.18
2023-04-01T09:12:33.842Z,83.37
2023-04-01T09:13:33.829Z,83.20
2023-04-01T09:14:33.820Z,82.80
2023-04-01T09:15:34.068Z,83.34
2023-04-01T09:16:33.823Z,83.04
2023-04-01T09:17:33.812Z,84.00
2023-04-01T09:18:33.765Z,83.69
2023-04-01T09:19:33.753Z,83.48
2023-04-01T09:20:33.767Z,84.61
2023-04-01T09:21:33.728Z,84.50
2023-04-01T09:22:33.717Z,84.61
2023-04-01T09:23:33.706Z,84.55
2023-04-01T09:24:33.695Z,84.91
2023-04-01T09:25:34.057Z,84.55
2023-04-01T09:26:33.669Z,85.12
2023-04-01T09:27:33.657Z,85.46
2023-04-01T09:28:33.651Z,85.67
2023-04-01T09:29:33.657Z,85.52
2023-04-01T09:30:33.644Z,85.32
2023-04-01T09:31:33.853Z,85.63
2023-04-01T09:32:33.697Z,85.52
2023-04-01T09:33:33.616Z,84.00
2023-04-01T09:34:33.601Z,84.96
2023-04-01T09:35:33.666Z,85.52
2023-04-01T09:36:33.563Z,85.02
2023-04-01T09:37:33.573Z,85.12
2023-04-01T09:38:33.514Z,85.63
2023-04-01T09:39:33.524Z,85.73
2023-04-01T09:40:33.492Z,85.83
2023-04-01T09:41:33.483Z,86.08
2023-04-01T09:42:33.462Z,85.67
2023-04-01T09:43:33.450Z,84.55
2023-04-01T09:44:33.441Z,85.67
2023-04-01T09:45:33.866Z,86.28
2023-04-01T09:46:33.531Z,86.08
2023-04-01T09:47:33.417Z,86.69
2023-04-01T09:48:33.384Z,86.08
2023-04-01T09:49:33.369Z,85.77
2023-04-01T09:50:33.361Z,86.85
2023-04-01T09:51:33.346Z,86.34
2023-04-01T09:52:33.355Z,85.73
2023-04-01T09:53:33.336Z,85.12
2023-04-01T09:54:33.321Z,84.41
2023-04-01T09:55:33.479Z,84.20
2023-04-01T09:56:34.315Z,84.61
2023-04-01T09:57:33.410Z,84.50
2023-04-01T09:58:33.272Z,84.50
2023-04-01T09:59:33.248Z,85.57
2023-04-01T10:00:33.243Z,85.46
2023-04-01T10:01:33.255Z,85.67
2023-04-01T10:02:33.268Z,85.67
2023-04-01T10:03:33.191Z,86.08
2023-04-01T10:04:33.173Z,86.28
2023-04-01T10:05:33.422Z,86.69
2023-04-01T10:06:33.157Z,85.87
2023-04-01T10:07:33.137Z,85.43
2023-04-01T10:08:33.172Z,85.12
2023-04-01T10:09:33.126Z,84.91
2023-04-01T10:10:33.093Z,85.32
2023-04-01T10:11:33.083Z,84.47
2023-04-01T10:12:33.073Z,84.77
2023-04-01T10:13:33.059Z,85.12
2023-04-01T10:14:33.041Z,85.22
2023-04-01T10:15:33.242Z,84.82
2023-04-01T10:16:33.031Z,84.16
2023-04-01T10:17:33.050Z,84.67
2023-04-01T10:18:32.989Z,84.67
2023-04-01T10:19:32.977Z,84.36
2023-04-01T10:20:32.963Z,83.34
2023-04-01T10:21:32.952Z,84.57
2023-04-01T10:22:32.936Z,83.95
2023-04-01T10:23:32.926Z,83.25
2023-04-01T10:24:32.935Z,83.55
2023-04-01T10:25:33.096Z,83.75
2023-04-01T10:26:32.885Z,83.55
2023-04-01T10:27:32.873Z,84.06
2023-04-01T10:28:32.858Z,84.27
2023-04-01T10:29:32.845Z,83.04
2023-04-01T10:30:32.834Z,84.57
2023-04-01T10:31:32.844Z,83.51
2023-04-01T10:32:32.820Z,83.31
2023-04-01T10:33:32.797Z,83.20
2023-04-01T10:34:32.780Z,83.61
2023-04-01T10:35:33.088Z,82.29
2023-04-01T10:36:32.760Z,82.25
2023-04-01T10:37:32.759Z,82.56
2023-04-01T10:38:32.734Z,83.17
2023-04-01T10:39:32.733Z,82.59
2023-04-01T10:40:32.727Z,82.45
2023-04-01T10:41:32.690Z,82.86
2023-04-01T10:42:32.683Z,82.04
2023-04-01T10:43:32.680Z,82.90
2023-04-01T10:44:32.650Z,83.31
2023-04-01T10:45:32.998Z,82.70
2023-04-01T10:46:32.711Z,82.65
2023-04-01T10:47:32.641Z,82.45
2023-04-01T10:48:32.596Z,82.15
2023-04-01T10:49:32.598Z,81.64
2023-04-01T10:50:32.577Z,82.18
2023-04-01T10:51:32.564Z,82.56
2023-04-01T10:52:32.549Z,81.43
2023-04-01T10:53:32.550Z,81.95
2023-04-01T10:54:32.528Z,81.81
2023-04-01T10:55:32.832Z,81.40
2023-04-01T10:56:32.534Z,82.11
2023-04-01T10:57:32.612Z,81.97
2023-04-01T10:58:32.474Z,81.56
2023-04-01T10:59:32.460Z,81.97
2023-04-01T11:00:32.444Z,81.29
2023-04-01T11:01:32.495Z,81.81
2023-04-01T11:02:32.583Z,82.82
2023-04-01T11:03:32.571Z,82.89
2023-04-01T11:04:32.392Z,81.46
2023-04-01T11:05:32.590Z,81.97
2023-04-01T11:06:32.369Z,82.37
2023-04-01T11:07:32.362Z,82.37
2023-04-01T11:08:32.341Z,82.65
2023-04-01T11:09:32.328Z,83.23
2023-04-01T11:10:32.318Z,81.70
2023-04-01T11:11:32.302Z,81.60
2023-04-01T11:12:32.322Z,82.21
2023-04-01T11:13:32.277Z,83.19
2023-04-01T11:14:32.270Z,81.40
2023-04-01T11:15:32.518Z,82.01
2023-04-01T11:16:32.300Z,82.15
2023-04-01T11:17:32.247Z,83.84
2023-04-01T11:18:32.213Z,83.33
2023-04-01T11:19:32.197Z,82.25
2023-04-01T11:20:32.228Z,83.37
2023-04-01T11:21:32.170Z,84.63
2023-04-01T11:22:32.161Z,85.44
2023-04-01T11:23:32.165Z,85.44
2023-04-01T11:24:32.141Z,86.05
2023-04-01T11:25:32.350Z,85.75
2023-04-01T11:26:32.108Z,85.44
2023-04-01T11:27:32.104Z,85.35
2023-04-01T11:28:32.107Z,85.85
2023-04-01T11:29:32.078Z,85.49
2023-04-01T11:30:32.059Z,85.93
2023-04-01T11:31:32.112Z,86.45
2023-04-01T11:32:32.071Z,86.92
2023-04-01T11:33:32.017Z,87.12
2023-04-01T11:34:32.005Z,87.53
2023-04-01T11:35:32.329Z,86.51
2023-04-01T11:36:32.020Z,86.92
2023-04-01T11:37:31.965Z,86.45
2023-04-01T11:38:31.964Z,87.22
2023-04-01T11:39:31.938Z,87.18
2023-04-01T11:40:31.929Z,86.57
2023-04-01T11:41:31.917Z,86.12
2023-04-01T11:42:31.905Z,85.35
2023-04-01T11:43:33.824Z,85.04
2023-04-01T11:44:31.908Z,84.83
2023-04-01T11:45:32.145Z,85.14
2023-04-01T11:46:31.896Z,85.81
2023-04-01T11:47:31.861Z,85.81
2023-04-01T11:48:31.839Z,85.06
2023-04-01T11:49:31.811Z,84.35
2023-04-01T11:50:31.799Z,83.53
2023-04-01T11:51:31.807Z,84.45
2023-04-01T11:52:31.780Z,85.77
2023-04-01T11:53:31.765Z,84.35
2023-04-01T11:54:31.748Z,83.43
2023-04-01T11:55:31.934Z,83.37
2023-04-01T11:56:31.728Z,84.66
2023-04-01T11:57:31.766Z,84.04
2023-04-01T11:58:31.698Z,84.35
2023-04-01T11:59:31.684Z,84.55
2023-04-01T12:00:31.696Z,84.11
2023-04-01T12:01:31.666Z,84.21
2023-04-01T12:02:31.765Z,83.70
2023-04-01T12:03:31.875Z,84.14
2023-04-01T12:04:31.688Z,84.45
2023-04-01T12:05:31.913Z,83.50
2023-04-01T12:06:31.601Z,83.59
2023-04-01T12:07:31.582Z,84.27
2023-04-01T12:08:31.566Z,83.86
2023-04-01T12:09:31.569Z,82.95
2023-04-01T12:10:31.541Z,82.34
2023-04-01T12:11:31.526Z,81.79
2023-04-01T12:12:31.513Z,82.91
2023-04-01T12:13:31.499Z,82.87
2023-04-01T12:14:31.493Z,82.33
2023-04-01T12:15:31.680Z,81.61
2023-04-01T12:16:31.519Z,80.60
2023-04-01T12:17:31.501Z,82.73
2023-04-01T12:18:31.437Z,81.51
2023-04-01T12:20:31.445Z,81.21
2023-04-01T12:21:31.401Z,79.32
2023-04-01T12:22:33.756Z,80.57
2023-04-01T12:23:31.369Z,80.92
2023-04-01T12:24:31.358Z,81.02
2023-04-01T12:25:31.644Z,80.81
2023-04-01T12:26:31.339Z,81.73
2023-04-01T12:27:31.316Z,81.89
2023-04-01T12:28:31.309Z,81.08
2023-04-01T12:29:31.292Z,80.81
2023-04-01T12:30:31.278Z,80.41
2023-04-01T12:31:31.287Z,81.22
2023-04-01T12:32:31.281Z,82.11
2023-04-01T12:33:31.238Z,83.90
2023-04-01T12:34:31.226Z,84.31
2023-04-01T12:35:31.407Z,83.15
2023-04-01T12:36:31.202Z,83.45
2023-04-01T12:37:31.185Z,82.78
2023-04-01T12:38:31.172Z,82.78
2023-04-01T12:39:31.162Z,82.58
2023-04-01T12:40:31.443Z,83.09
2023-04-01T12:41:31.131Z,82.58
2023-04-01T12:42:31.118Z,83.25
2023-04-01T12:43:31.105Z,83.59
2023-04-01T12:44:31.099Z,83.59
2023-04-01T12:45:31.347Z,84.41
2023-04-01T12:46:31.156Z,84.00
2023-04-01T12:47:31.067Z,83.50
2023-04-01T12:48:31.065Z,84.41
2023-04-01T12:49:31.026Z,83.70
2023-04-01T12:50:31.020Z,83.09
2023-04-01T12:51:31.018Z,83.36
2023-04-01T12:52:30.987Z,83.66
2023-04-01T12:53:30.974Z,84.03
2023-04-01T12:54:30.961Z,83.92
2023-04-01T12:55:31.045Z,84.33